Time;durP1;ratioP1;P1;durP2;ratioP2;P2;SDS_P1;SDS_P2;PMS_P1;PMS_P2;Temp;Humidity;BMP_temperature;BMP_pressure;BME280_temperature;BME280_humidity;BME280_pressure;Samples;Min_cycle;Max_cycle;Signal;HPM_P1;HPM_P2
2022/06/17 00:00:54;;;;;;;2.60;2.40;;;20.70;75.70;;;;;;4987565;28;20951;-71
2022/06/17 00:03:22;;;;;;;4.30;2.70;;;20.60;75.20;;;;;;4986399;28;20443;-72
2022/06/17 00:05:49;;;;;;;3.10;2.40;;;20.50;75.90;;;;;;4991170;28;20418;-71
2022/06/17 00:08:39;;;;;;;3.00;2.43;;;20.30;76.60;;;;;;5006698;28;20496;-71
2022/06/17 00:11:14;;;;;;;4.13;2.07;;;20.30;77.00;;;;;;5003280;28;20420;-70
2022/06/17 00:13:40;;;;;;;2.53;2.30;;;20.30;77.30;;;;;;4987109;28;20426;-71
2022/06/17 00:16:15;;;;;;;2.90;2.60;;;20.40;77.80;;;;;;4986986;28;20455;-70
2022/06/17 00:18:42;;;;;;;4.50;2.30;;;20.30;77.60;;;;;;5001682;28;20528;-70
2022/06/17 00:21:22;;;;;;;2.50;2.30;;;20.20;78.40;;;;;;5005099;28;20510;-71
2022/06/17 00:23:48;;;;;;;4.03;2.60;;;20.20;79.00;;;;;;4987020;28;20412;-71
2022/06/17 00:26:13;;;;;;;3.20;2.57;;;20.10;78.80;;;;;;4987245;28;20481;-70
2022/06/17 00:28:39;;;;;;;2.83;2.10;;;20.00;79.70;;;;;;4986758;28;20267;-71
2022/06/17 00:31:05;;;;;;;4.43;2.83;;;20.00;79.90;;;;;;4986960;28;20192;-72
2022/06/17 00:33:30;;;;;;;4.63;2.17;;;20.10;79.90;;;;;;4986439;28;20220;-71
2022/06/17 00:35:57;;;;;;;2.60;2.40;;;20.00;79.90;;;;;;4986663;28;20208;-71
2022/06/17 00:38:29;;;;;;;3.00;2.53;;;20.10;80.70;;;;;;4986959;28;20208;-70
2022/06/17 00:40:57;;;;;;;3.10;2.80;;;19.90;80.60;;;;;;4986882;28;20444;-71
2022/06/17 00:43:28;;;;;;;4.67;2.67;;;19.70;81.40;;;;;;4986746;28;20931;-70
2022/06/17 00:46:33;;;;;;;2.73;2.53;;;19.60;82.20;;;;;;4986912;28;20504;-70
2022/06/17 00:49:03;;;;;;;2.67;2.47;;;19.60;82.80;;;;;;4986899;28;20412;-70
2022/06/17 00:51:39;;;;;;;3.90;2.90;;;19.50;83.10;;;;;;4986395;28;20412;-69
2022/06/17 00:54:20;;;;;;;3.37;2.60;;;19.40;83.70;;;;;;4986118;28;20419;-70
2022/06/17 00:56:46;;;;;;;3.37;2.60;;;19.30;84.70;;;;;;4986427;28;20550;-70
2022/06/17 00:59:13;;;;;;;3.20;2.90;;;19.30;84.80;;;;;;4986926;28;20975;-70
2022/06/17 01:02:06;;;;;;;3.00;2.60;;;19.30;85.40;;;;;;4986045;28;20192;-70
2022/06/17 01:04:41;;;;;;;4.13;2.60;;;19.30;85.40;;;;;;4986281;28;20479;-72
2022/06/17 01:07:18;;;;;;;3.03;2.70;;;19.20;86.10;;;;;;4986860;28;20431;-70
2022/06/17 01:09:58;;;;;;;3.37;2.90;;;19.30;86.70;;;;;;4997092;28;20790;-71
2022/06/17 01:12:44;;;;;;;3.40;2.60;;;19.30;86.50;;;;;;4981267;28;20430;-72
2022/06/17 01:15:15;;;;;;;2.50;2.30;;;19.10;87.50;;;;;;5002003;28;20927;-72
2022/06/17 01:17:41;;;;;;;2.63;2.43;;;19.00;88.70;;;;;;4985564;28;20538;-69
2022/06/17 01:20:10;;;;;;;4.00;2.70;;;19.00;89.30;;;;;;4986158;28;20412;-71
2022/06/17 01:22:50;;;;;;;2.87;2.67;;;18.90;89.10;;;;;;4986106;28;20455;-70
2022/06/17 01:25:29;;;;;;;2.93;2.30;;;18.90;89.80;;;;;;4986503;28;20446;-70
2022/06/17 01:27:58;;;;;;;3.07;2.40;;;19.00;90.20;;;;;;4985775;28;20490;-70
2022/06/17 01:30:33;;;;;;;2.77;2.57;;;18.90;90.20;;;;;;4985811;28;20550;-70
2022/06/17 01:33:13;;;;;;;6.20;3.40;;;18.80;90.70;;;;;;4985572;28;20419;-71
2022/06/17 01:35:47;;;;;;;3.47;2.70;;;18.70;91.00;;;;;;4985297;28;20558;-71
2022/06/17 01:38:13;;;;;;;4.83;2.37;;;18.60;91.40;;;;;;4985306;28;20461;-70
2022/06/17 01:40:39;;;;;;;3.70;2.90;;;18.70;91.80;;;;;;4985495;28;20739;-70
2022/06/17 01:43:08;;;;;;;3.10;2.30;;;18.70;91.90;;;;;;4985528;28;20506;-72
2022/06/17 01:45:42;;;;;;;2.63;2.43;;;18.70;92.30;;;;;;4985582;28;20181;-70
2022/06/17 01:48:09;;;;;;;9.10;2.80;;;18.50;92.60;;;;;;4985023;28;20794;-70
2022/06/17 01:50:38;;;;;;;4.93;3.00;;;18.60;93.10;;;;;;4985471;28;20424;-70
2022/06/17 01:53:09;;;;;;;3.83;2.93;;;18.60;93.10;;;;;;4967540;28;20514;-69
2022/06/17 01:55:42;;;;;;;2.87;2.50;;;18.70;92.90;;;;;;4991458;28;20439;-71
2022/06/17 01:58:13;;;;;;;6.30;3.00;;;18.50;93.20;;;;;;5004625;28;21620;-71
2022/06/17 02:00:41;;;;;;;4.43;2.97;;;18.50;93.70;;;;;;5004140;28;20415;-70
2022/06/17 02:03:16;;;;;;;2.70;2.47;;;18.60;93.70;;;;;;5004992;28;20415;-72
2022/06/17 02:05:46;;;;;;;2.87;2.33;;;18.60;93.80;;;;;;4988527;28;20495;-72
2022/06/17 02:08:11;;;;;;;5.20;3.10;;;18.50;94.20;;;;;;4984968;28;20513;-71
2022/06/17 02:10:44;;;;;;;3.60;2.93;;;18.50;94.60;;;;;;4985064;28;20412;-72
2022/06/17 02:13:11;;;;;;;2.90;2.57;;;18.60;94.60;;;;;;4984938;28;21070;-70
2022/06/17 02:15:37;;;;;;;5.30;2.93;;;18.50;94.70;;;;;;4986997;28;20487;-71
2022/06/17 02:18:07;;;;;;;3.00;2.80;;;18.50;94.90;;;;;;5004092;28;20435;-72
2022/06/17 02:20:33;;;;;;;3.83;2.70;;;18.40;95.20;;;;;;5004511;28;20763;-70
2022/06/17 02:23:00;;;;;;;3.17;2.87;;;18.40;95.30;;;;;;4996366;28;20470;-70
2022/06/17 02:25:30;;;;;;;3.50;3.20;;;18.40;95.60;;;;;;4989782;28;20794;-70
2022/06/17 02:27:59;;;;;;;6.87;3.10;;;18.40;95.80;;;;;;4984678;28;20471;-71
2022/06/17 02:30:28;;;;;;;3.03;2.63;;;18.30;96.00;;;;;;4985133;28;20412;-70
2022/06/17 02:32:57;;;;;;;3.20;2.90;;;18.30;96.00;;;;;;4984467;28;20991;-70
2022/06/17 02:36:03;;;;;;;2.93;2.73;;;18.30;96.20;;;;;;4984550;28;20415;-70
2022/06/17 02:38:32;;;;;;;3.40;3.10;;;18.30;96.50;;;;;;4972431;28;20850;-69
2022/06/17 02:41:05;;;;;;;3.00;2.70;;;18.30;96.70;;;;;;5003961;28;20446;-72
2022/06/17 02:43:35;;;;;;;2.67;2.50;;;18.30;96.60;;;;;;5004061;28;20403;-73
2022/06/17 02:46:29;;;;;;;2.73;2.43;;;18.50;96.40;;;;;;5004218;28;20415;-70
2022/06/17 02:48:59;;;;;;;2.77;2.57;;;18.50;96.40;;;;;;5004038;28;20447;-72
2022/06/17 02:51:29;;;;;;;3.77;2.90;;;18.50;96.70;;;;;;5004116;28;20465;-71
2022/06/17 02:53:56;;;;;;;2.77;2.53;;;18.30;97.10;;;;;;5003955;28;21543;-72
2022/06/17 02:56:25;;;;;;;2.63;2.43;;;18.30;97.20;;;;;;4988342;28;20467;-70
2022/06/17 02:59:05;;;;;;;3.10;2.80;;;18.20;97.50;;;;;;4966990;28;20482;-70
2022/06/17 03:01:34;;;;;;;2.90;2.70;;;18.20;97.60;;;;;;4984569;28;20415;-70
2022/06/17 03:04:01;;;;;;;4.60;3.20;;;18.30;97.30;;;;;;4984338;28;20784;-70
2022/06/17 03:06:38;;;;;;;3.47;2.90;;;18.40;97.40;;;;;;4984133;28;20893;-69
2022/06/17 03:09:21;;;;;;;4.23;2.90;;;18.40;97.20;;;;;;5001046;28;20873;-69
2022/06/17 03:11:55;;;;;;;4.07;2.70;;;18.30;97.80;;;;;;5004678;28;20426;-69
2022/06/17 03:14:22;;;;;;;3.37;2.97;;;18.20;98.10;;;;;;5007866;28;20414;-70
2022/06/17 03:16:52;;;;;;;3.00;2.63;;;18.20;98.30;;;;;;5007395;28;20458;-71
2022/06/17 03:19:18;;;;;;;2.40;2.20;;;18.20;98.30;;;;;;5007435;28;21045;-70
2022/06/17 03:21:44;;;;;;;2.70;2.50;;;18.20;98.30;;;;;;5007923;28;21065;-71
2022/06/17 03:24:25;;;;;;;3.37;3.07;;;18.10;98.70;;;;;;5007402;28;20407;-70
2022/06/17 03:27:01;;;;;;;3.60;3.30;;;18.10;99.10;;;;;;4988996;28;20411;-72
2022/06/17 03:29:27;;;;;;;2.60;2.40;;;18.20;98.80;;;;;;5007391;28;20414;-70
2022/06/17 03:32:03;;;;;;;3.10;2.80;;;18.10;99.00;;;;;;5007346;28;20441;-71
2022/06/17 03:34:43;;;;;;;4.40;3.03;;;18.20;99.10;;;;;;5007732;28;20513;-70
2022/06/17 03:37:12;;;;;;;3.37;2.50;;;18.20;99.00;;;;;;4999975;28;20471;-70
2022/06/17 03:39:40;;;;;;;3.97;3.53;;;18.10;99.20;;;;;;4987786;28;21176;-69
2022/06/17 03:42:28;;;;;;;3.17;2.93;;;17.90;99.90;;;;;;4987800;28;20515;-69
2022/06/17 03:45:26;;;;;;;3.80;2.90;;;17.90;99.90;;;;;;4987963;28;21415;-70
2022/06/17 03:48:27;;;;;;;3.00;2.80;;;18.00;99.90;;;;;;4969873;28;20452;-70
2022/06/17 03:50:53;;;;;;;3.50;3.13;;;17.90;99.90;;;;;;4970381;28;20438;-71
2022/06/17 03:53:23;;;;;;;2.50;2.30;;;18.00;99.90;;;;;;4986921;28;20415;-73
2022/06/17 03:55:54;;;;;;;3.33;3.03;;;18.10;99.90;;;;;;4991038;28;20209;-70
2022/06/17 03:58:22;;;;;;;3.13;2.83;;;18.20;99.90;;;;;;4987265;28;20433;-69
2022/06/17 04:01:01;;;;;;;3.40;3.10;;;18.20;99.90;;;;;;4987296;28;20419;-72
2022/06/17 04:06:08;;;;;;;3.77;3.33;;;18.10;99.90;;;;;;5025802;23;21018;-71
2022/06/17 04:08:48;;;;;;;3.43;3.13;;;18.20;99.90;;;;;;5007675;28;20477;-69
2022/06/17 04:11:14;;;;;;;3.07;2.87;;;18.30;99.90;;;;;;5006176;28;20422;-69
2022/06/17 04:13:41;;;;;;;4.17;3.23;;;18.30;99.90;;;;;;5007636;28;20411;-69
2022/06/17 04:16:22;;;;;;;2.60;2.40;;;18.30;99.90;;;;;;5006946;28;20458;-68
2022/06/17 04:18:48;;;;;;;3.30;2.70;;;18.20;99.90;;;;;;5006789;28;20403;-67
2022/06/17 04:21:13;;;;;;;3.67;3.10;;;18.20;99.90;;;;;;4996428;28;20482;-69
2022/06/17 04:23:40;;;;;;;3.30;3.00;;;18.20;99.90;;;;;;4986374;28;20180;-69
2022/06/17 04:26:32;;;;;;;3.57;3.03;;;18.10;99.90;;;;;;4986740;28;20188;-70
2022/06/17 04:29:02;;;;;;;3.80;3.03;;;18.20;99.90;;;;;;4996618;28;20439;-70
2022/06/17 04:31:30;;;;;;;4.10;2.60;;;18.10;99.90;;;;;;5005985;28;20422;-69
2022/06/17 04:34:16;;;;;;;3.50;3.20;;;18.20;99.90;;;;;;4993218;28;20439;-67
2022/06/17 04:37:02;;;;;;;3.20;3.00;;;18.20;99.90;;;;;;4986941;28;20443;-66
2022/06/17 04:39:36;;;;;;;3.30;3.00;;;18.30;99.90;;;;;;4986577;28;20414;-70
2022/06/17 04:42:05;;;;;;;3.83;3.53;;;18.40;99.90;;;;;;4986621;28;20897;-68
2022/06/17 04:44:31;;;;;;;4.10;3.43;;;18.40;99.90;;;;;;4986419;28;20432;-68
2022/06/17 04:47:04;;;;;;;3.93;3.40;;;18.40;99.90;;;;;;5000889;28;20414;-68
2022/06/17 04:49:33;;;;;;;3.40;3.20;;;18.40;99.90;;;;;;5005996;28;20176;-69
2022/06/17 04:52:13;;;;;;;7.17;3.23;;;18.50;99.90;;;;;;4991098;28;20408;-69
2022/06/17 04:54:40;;;;;;;3.30;3.00;;;18.50;99.90;;;;;;4986447;28;20432;-69
2022/06/17 04:57:06;;;;;;;3.60;3.20;;;18.50;99.90;;;;;;4985714;28;20475;-69
2022/06/17 04:59:40;;;;;;;3.57;3.20;;;18.50;99.90;;;;;;4986366;28;20424;-69
2022/06/17 05:02:21;;;;;;;3.33;3.03;;;18.60;99.90;;;;;;4994938;28;20182;-70
2022/06/17 05:04:49;;;;;;;3.27;2.97;;;18.70;99.90;;;;;;5005442;28;20462;-70
2022/06/17 05:07:15;;;;;;;3.47;3.17;;;18.80;99.90;;;;;;4987870;28;20412;-68
2022/06/17 05:09:56;;;;;;;3.97;3.57;;;18.90;99.90;;;;;;4986237;28;20424;-69
2022/06/17 05:12:38;;;;;;;3.83;3.53;;;19.00;99.90;;;;;;4997919;28;20997;-69
2022/06/17 05:15:14;;;;;;;3.20;2.90;;;19.10;99.90;;;;;;5005321;28;20458;-68
2022/06/17 05:17:40;;;;;;;3.50;3.20;;;19.20;99.90;;;;;;5005309;28;20864;-68
2022/06/17 05:20:08;;;;;;;3.33;3.03;;;19.30;99.90;;;;;;5005433;28;20415;-70
2022/06/17 05:22:47;;;;;;;3.03;2.73;;;19.40;99.90;;;;;;4986057;28;20189;-68
2022/06/17 05:25:18;;;;;;;3.17;2.90;;;19.60;99.90;;;;;;4985701;28;20497;-68
2022/06/17 05:27:44;;;;;;;5.80;3.20;;;19.70;99.90;;;;;;4990898;28;20474;-70
2022/06/17 05:30:11;;;;;;;4.13;3.13;;;19.80;99.90;;;;;;5005495;28;20903;-68
2022/06/17 05:32:38;;;;;;;5.30;3.00;;;19.90;99.90;;;;;;5004814;28;20183;-69
2022/06/17 05:35:04;;;;;;;6.80;3.20;;;20.00;99.90;;;;;;5003940;28;21010;-68
2022/06/17 05:37:30;;;;;;;2.83;2.63;;;20.20;99.90;;;;;;5005352;28;20513;-69
2022/06/17 05:39:56;;;;;;;3.67;2.50;;;20.30;99.90;;;;;;5005393;28;20423;-68
2022/06/17 05:42:21;;;;;;;2.77;2.53;;;20.50;99.90;;;;;;5005366;28;20183;-69
2022/06/17 05:44:47;;;;;;;2.67;2.40;;;20.60;99.90;;;;;;5005122;28;20680;-70
2022/06/17 05:47:13;;;;;;;2.73;2.53;;;20.70;99.90;;;;;;5005055;28;20182;-68
2022/06/17 05:49:40;;;;;;;2.57;2.37;;;20.80;99.30;;;;;;4987504;28;20426;-68
2022/06/17 05:52:06;;;;;;;3.03;2.73;;;20.80;99.60;;;;;;4989581;28;20244;-68
2022/06/17 05:54:32;;;;;;;4.23;2.40;;;20.90;99.50;;;;;;4986035;28;21072;-69
2022/06/17 05:56:57;;;;;;;6.00;2.53;;;21.00;99.60;;;;;;4985428;28;20444;-69
2022/06/17 05:59:23;;;;;;;5.10;4.60;;;21.20;99.40;;;;;;4987225;28;20235;-69
2022/06/17 06:01:49;;;;;;;3.50;2.90;;;21.30;98.50;;;;;;5004680;28;20188;-69
2022/06/17 06:04:14;;;;;;;3.33;2.80;;;21.40;97.80;;;;;;5004475;28;20280;-69
2022/06/17 06:06:40;;;;;;;2.97;2.77;;;21.40;97.10;;;;;;4999387;28;20188;-69
2022/06/17 06:09:05;;;;;;;3.43;2.93;;;21.40;96.10;;;;;;4998450;28;21224;-68
2022/06/17 06:11:31;;;;;;;3.57;3.27;;;21.40;96.80;;;;;;4986577;28;20187;-67
2022/06/17 06:13:57;;;;;;;4.20;3.50;;;21.60;96.80;;;;;;5004315;28;20204;-68
2022/06/17 06:16:23;;;;;;;3.40;2.90;;;21.70;95.80;;;;;;4997233;28;20693;-68
2022/06/17 06:18:50;;;;;;;4.53;3.30;;;21.40;94.70;;;;;;4984838;28;20680;-69
2022/06/17 06:21:16;;;;;;;2.90;2.70;;;21.20;94.90;;;;;;4994080;28;20415;-69
2022/06/17 06:23:42;;;;;;;3.50;2.70;;;21.40;95.10;;;;;;5004234;28;20473;-70
2022/06/17 06:26:12;;;;;;;2.83;2.53;;;21.70;95.50;;;;;;5004207;28;20950;-69
2022/06/17 06:28:38;;;;;;;3.00;2.80;;;21.90;95.40;;;;;;4986299;28;20831;-69
2022/06/17 06:31:09;;;;;;;5.67;3.23;;;21.90;95.10;;;;;;4986406;28;20434;-68
2022/06/17 06:33:35;;;;;;;4.07;2.87;;;21.80;94.10;;;;;;4998725;28;20191;-69
2022/06/17 06:36:01;;;;;;;4.10;3.57;;;21.80;94.00;;;;;;4984580;28;20460;-70
2022/06/17 06:38:27;;;;;;;4.50;3.60;;;21.40;93.70;;;;;;4984879;28;20604;-70
2022/06/17 06:40:52;;;;;;;3.93;3.53;;;21.30;94.20;;;;;;4984783;28;21303;-70
2022/06/17 06:43:20;;;;;;;5.73;3.37;;;21.30;94.60;;;;;;4984493;28;20239;-70
2022/06/17 06:45:48;;;;;;;3.33;3.03;;;21.50;93.70;;;;;;4984127;28;20288;-70
2022/06/17 06:48:17;;;;;;;4.00;3.60;;;21.50;93.60;;;;;;4984380;28;20431;-69
2022/06/17 06:50:43;;;;;;;3.93;3.10;;;21.70;93.70;;;;;;4995701;28;20415;-70
2022/06/17 06:53:09;;;;;;;3.23;2.63;;;21.80;93.20;;;;;;4984910;28;20939;-69
2022/06/17 06:55:35;;;;;;;3.53;3.03;;;21.70;92.90;;;;;;4976777;28;20538;-69
2022/06/17 06:58:11;;;;;;;2.87;2.57;;;21.80;92.50;;;;;;4996700;28;20422;-70
2022/06/17 07:00:43;;;;;;;6.00;3.10;;;22.10;92.50;;;;;;5001963;28;20449;-70
2022/06/17 07:03:09;;;;;;;3.90;2.60;;;21.90;92.50;;;;;;4998386;28;20426;-70
2022/06/17 07:05:40;;;;;;;3.33;3.03;;;21.80;92.60;;;;;;4991516;28;20475;-69
2022/06/17 07:08:06;;;;;;;4.03;3.10;;;21.70;93.20;;;;;;4989952;28;20451;-68
2022/06/17 07:10:34;;;;;;;4.30;3.30;;;21.70;93.10;;;;;;4995129;28;20406;-69
2022/06/17 07:13:00;;;;;;;3.33;3.03;;;21.70;93.30;;;;;;4987100;28;20507;-70
2022/06/17 07:15:27;;;;;;;3.83;3.23;;;21.70;93.30;;;;;;5003622;28;20512;-68
2022/06/17 07:18:07;;;;;;;4.77;3.00;;;21.80;93.20;;;;;;5003494;28;21372;-70
2022/06/17 07:20:42;;;;;;;4.43;3.03;;;21.70;93.30;;;;;;5000544;28;20424;-68
2022/06/17 07:23:10;;;;;;;3.50;2.87;;;21.70;93.10;;;;;;4984474;28;20419;-69
2022/06/17 07:25:37;;;;;;;4.47;2.93;;;21.80;93.40;;;;;;4984192;28;20439;-68
2022/06/17 07:28:03;;;;;;;3.30;3.00;;;22.20;93.40;;;;;;4996955;28;20415;-69
2022/06/17 07:30:30;;;;;;;3.23;2.80;;;22.40;92.40;;;;;;5003592;28;20419;-70
2022/06/17 07:32:56;;;;;;;4.20;3.07;;;22.70;93.00;;;;;;5003076;28;20446;-69
2022/06/17 07:35:21;;;;;;;3.17;2.87;;;23.00;93.00;;;;;;4986058;28;20471;-68
2022/06/17 07:40:32;;;;;;;4.37;3.47;;;23.40;92.20;;;;;;4985655;28;20267;-69
2022/06/17 07:42:58;;;;;;;7.17;3.67;;;23.60;91.40;;;;;;4986276;28;20419;-70
2022/06/17 07:45:27;;;;;;;3.87;3.30;;;23.50;91.40;;;;;;4984007;28;20443;-71
2022/06/17 07:47:54;;;;;;;8.90;3.60;;;23.50;91.30;;;;;;4983830;28;20424;-69
2022/06/17 07:50:24;;;;;;;3.90;3.60;;;23.50;91.60;;;;;;4986957;28;20411;-69
2022/06/17 07:52:49;;;;;;;6.20;3.53;;;23.70;92.00;;;;;;4983866;28;20482;-70
2022/06/17 07:55:15;;;;;;;5.07;3.90;;;23.80;91.70;;;;;;4983753;28;20443;-70
2022/06/17 07:57:45;;;;;;;4.03;3.53;;;23.50;91.80;;;;;;4966766;28;20581;-70
2022/06/17 08:00:32;;;;;;;4.93;4.03;;;23.70;91.80;;;;;;4987768;28;20497;-70
2022/06/17 08:02:57;;;;;;;5.57;3.53;;;23.70;92.00;;;;;;4987395;28;20415;-71
2022/06/17 08:05:23;;;;;;;4.77;3.43;;;23.60;91.70;;;;;;4989221;28;20451;-69
2022/06/17 08:07:50;;;;;;;5.13;3.50;;;23.70;91.60;;;;;;4987859;28;20203;-71
2022/06/17 08:10:19;;;;;;;5.10;3.80;;;23.80;91.50;;;;;;4987322;28;20515;-70
2022/06/17 08:12:45;;;;;;;4.17;3.77;;;23.80;91.20;;;;;;4987063;28;20569;-70
2022/06/17 08:15:12;;;;;;;4.40;3.30;;;23.70;91.20;;;;;;4987339;28;20530;-71
2022/06/17 08:17:41;;;;;;;5.60;3.87;;;23.80;91.40;;;;;;4987192;28;20197;-70
2022/06/17 08:20:25;;;;;;;4.33;3.00;;;23.90;91.30;;;;;;4987114;28;20469;-71
2022/06/17 08:22:52;;;;;;;10.33;5.80;;;24.00;91.00;;;;;;4993828;28;20415;-67
2022/06/17 08:25:18;;;;;;;4.43;3.47;;;24.10;91.10;;;;;;5006791;28;20927;-69
2022/06/17 08:27:53;;;;;;;3.90;3.60;;;24.00;90.80;;;;;;4999313;28;20426;-69
2022/06/17 08:30:23;;;;;;;7.23;4.07;;;24.10;90.90;;;;;;4987125;28;20764;-70
2022/06/17 08:32:53;;;;;;;5.60;3.80;;;23.70;90.90;;;;;;4987128;28;20506;-69
2022/06/17 08:35:37;;;;;;;3.73;3.40;;;23.90;90.90;;;;;;4987254;28;20807;-69
2022/06/17 08:38:28;;;;;;;3.67;2.73;;;24.20;90.50;;;;;;4987052;28;21550;-69
2022/06/17 08:40:53;;;;;;;3.13;2.73;;;24.50;85.90;;;;;;4986234;28;20420;-70
2022/06/17 08:43:53;;;;;;;3.60;2.90;;;24.40;84.90;;;;;;4986689;28;20419;-70
2022/06/17 08:46:27;;;;;;;4.17;2.50;;;24.30;85.30;;;;;;5005911;28;20172;-69
2022/06/17 08:49:22;;;;;;;4.40;2.20;;;24.30;80.30;;;;;;5006413;28;20401;-70
2022/06/17 08:52:38;;;;;;;4.03;2.37;;;24.30;79.30;;;;;;4986418;28;21549;-71
2022/06/17 08:55:21;;;;;;;6.13;3.23;;;24.60;80.40;;;;;;4956870;28;20848;-71
2022/06/17 08:58:04;;;;;;;3.57;2.83;;;24.60;83.60;;;;;;4964426;28;21055;-70
2022/06/17 09:01:10;;;;;;;3.17;2.60;;;24.80;83.40;;;;;;4982914;28;20418;-71
2022/06/17 09:04:01;;;;;;;3.47;2.47;;;24.70;81.00;;;;;;4988876;28;20414;-71
2022/06/17 09:06:46;;;;;;;2.87;2.63;;;24.80;80.00;;;;;;5004560;28;20411;-69
2022/06/17 09:09:54;;;;;;;5.10;2.90;;;24.90;80.70;;;;;;4984945;28;20444;-68
2022/06/17 09:12:34;;;;;;;2.63;2.40;;;25.00;78.50;;;;;;4986547;28;20441;-70
2022/06/17 09:15:27;;;;;;;3.80;3.23;;;25.10;77.80;;;;;;4986863;28;20427;-69
2022/06/17 09:18:19;;;;;;;2.90;2.70;;;25.10;77.40;;;;;;4988534;28;20812;-68
2022/06/17 09:20:49;;;;;;;5.57;3.30;;;25.20;77.20;;;;;;5000686;28;20420;-69
2022/06/17 09:23:25;;;;;;;4.73;2.93;;;24.60;77.50;;;;;;4986012;28;20411;-71
2022/06/17 09:25:51;;;;;;;3.83;2.60;;;24.80;77.80;;;;;;4985669;28;20419;-69
2022/06/17 09:28:23;;;;;;;3.83;3.13;;;24.90;79.00;;;;;;4997913;28;20430;-70
2022/06/17 09:30:58;;;;;;;5.00;3.10;;;25.30;75.90;;;;;;5005655;28;20469;-68
2022/06/17 09:33:50;;;;;;;4.27;2.70;;;25.40;75.70;;;;;;5005182;28;20402;-68
2022/06/17 09:36:30;;;;;;;4.90;3.43;;;25.30;73.70;;;;;;5000101;28;21019;-69
2022/06/17 09:39:14;;;;;;;2.90;2.60;;;25.00;74.00;;;;;;4995860;28;20422;-69
2022/06/17 09:41:44;;;;;;;3.10;2.80;;;25.30;72.80;;;;;;4989359;28;20503;-69
2022/06/17 09:44:17;;;;;;;2.77;2.57;;;25.40;74.10;;;;;;4984938;28;20502;-69
2022/06/17 09:46:48;;;;;;;3.50;3.20;;;25.60;74.90;;;;;;4985418;28;20463;-69
2022/06/17 09:49:25;;;;;;;3.00;2.43;;;25.60;73.40;;;;;;4992900;28;20481;-70
2022/06/17 09:52:15;;;;;;;2.67;2.47;;;25.90;72.40;;;;;;4984999;28;20418;-69
2022/06/17 09:54:53;;;;;;;4.40;3.13;;;26.10;72.00;;;;;;4993640;28;20427;-70
2022/06/17 09:57:22;;;;;;;3.13;2.80;;;25.90;72.50;;;;;;4984888;28;20450;-69
2022/06/17 10:00:09;;;;;;;4.10;2.80;;;26.10;73.00;;;;;;4984993;28;20419;-69
2022/06/17 10:02:40;;;;;;;3.20;2.60;;;26.20;71.70;;;;;;4984919;28;20992;-69
2022/06/17 10:05:35;;;;;;;4.63;2.70;;;26.20;69.70;;;;;;5002045;23;20483;-69
2022/06/17 10:08:18;;;;;;;2.50;2.30;;;26.20;69.90;;;;;;4990071;28;20404;-72
2022/06/17 10:11:06;;;;;;;3.33;2.53;;;26.20;69.00;;;;;;4986334;28;20803;-70
2022/06/17 10:13:54;;;;;;;3.47;3.17;;;26.10;68.60;;;;;;4984728;28;20487;-70
2022/06/17 10:19:28;;;;;;;2.83;2.40;;;26.20;66.40;;;;;;4985331;28;20458;-71
2022/06/17 10:22:02;;;;;;;4.13;2.30;;;26.40;63.20;;;;;;4984658;28;20404;-71
2022/06/17 10:25:05;;;;;;;3.53;2.30;;;26.60;63.70;;;;;;4985132;28;21255;-68
2022/06/17 10:27:46;;;;;;;2.83;2.30;;;26.60;63.90;;;;;;4985051;28;20451;-70
2022/06/17 10:30:36;;;;;;;2.40;2.20;;;26.50;64.20;;;;;;4984949;28;20502;-68
2022/06/17 10:33:01;;;;;;;3.43;2.57;;;26.60;65.30;;;;;;4984887;28;20411;-71
2022/06/17 10:35:33;;;;;;;3.57;2.07;;;26.70;63.30;;;;;;4984398;28;20435;-70
2022/06/17 10:38:02;;;;;;;2.57;2.37;;;26.90;62.00;;;;;;4985282;28;20279;-70
2022/06/17 10:40:31;;;;;;;3.83;2.50;;;27.00;61.20;;;;;;4984840;28;20427;-70
2022/06/17 10:43:02;;;;;;;8.93;2.57;;;27.30;64.30;;;;;;4984664;28;20897;-70
2022/06/17 10:45:28;;;;;;;6.77;2.50;;;27.70;59.50;;;;;;4967468;28;20452;-71
2022/06/17 10:48:16;;;;;;;3.10;2.80;;;27.80;60.10;;;;;;4984585;28;20515;-70
2022/06/17 10:50:42;;;;;;;4.23;2.60;;;27.90;60.60;;;;;;4983904;28;20908;-70
2022/06/17 10:53:16;;;;;;;3.37;2.63;;;27.70;60.60;;;;;;4984701;28;20502;-70
2022/06/17 10:56:05;;;;;;;2.47;2.27;;;27.90;62.60;;;;;;4984231;28;20278;-69
2022/06/17 10:58:33;;;;;;;3.93;2.83;;;28.00;61.60;;;;;;4984254;28;20447;-70
2022/06/17 11:01:08;;;;;;;3.13;2.40;;;27.90;60.50;;;;;;4984425;28;20443;-69
2022/06/17 11:03:38;;;;;;;3.83;2.47;;;27.90;61.60;;;;;;4983918;28;20939;-70
2022/06/17 11:06:04;;;;;;;3.10;2.50;;;28.00;59.90;;;;;;4983694;28;20796;-69
2022/06/17 11:08:54;;;;;;;2.60;2.40;;;28.20;60.90;;;;;;4984371;28;20425;-69
2022/06/17 11:14:36;;;;;;;2.70;2.50;;;28.20;60.00;;;;;;4984318;28;20399;-70
2022/06/17 11:17:10;;;;;;;3.90;2.33;;;28.70;60.00;;;;;;4968783;28;20517;-70
2022/06/17 11:19:39;;;;;;;2.60;2.40;;;28.50;59.50;;;;;;4984521;28;20427;-70
2022/06/17 11:22:05;;;;;;;2.73;2.20;;;28.20;60.20;;;;;;4983991;28;20408;-70
2022/06/17 11:24:40;;;;;;;3.87;2.27;;;28.20;57.80;;;;;;4984265;28;20531;-70
2022/06/17 11:27:06;;;;;;;2.80;2.60;;;28.00;58.30;;;;;;4984077;28;20530;-71
2022/06/17 11:29:42;;;;;;;2.53;2.33;;;28.30;59.50;;;;;;4984511;28;20512;-70
2022/06/17 11:32:19;;;;;;;3.80;2.13;;;28.70;55.80;;;;;;4983792;28;20183;-69
2022/06/17 11:34:52;;;;;;;3.50;2.10;;;29.50;53.80;;;;;;4987820;28;20485;-70
2022/06/17 11:37:24;;;;;;;2.10;1.90;;;30.80;52.30;;;;;;4987433;28;20446;-70
2022/06/17 11:40:12;;;;;;;2.10;1.90;;;32.10;48.70;;;;;;4987754;28;20407;-70
2022/06/17 11:42:49;;;;;;;1.90;1.60;;;32.00;47.10;;;;;;4987729;28;20444;-71
2022/06/17 11:45:25;;;;;;;2.00;1.90;;;33.20;45.80;;;;;;4987678;28;20668;-68
2022/06/17 11:47:57;;;;;;;3.90;2.17;;;33.90;43.50;;;;;;4986906;28;20502;-69
2022/06/17 11:50:28;;;;;;;1.73;1.63;;;33.10;44.20;;;;;;4987557;28;20771;-69
2022/06/17 11:53:06;;;;;;;4.80;2.53;;;33.90;42.50;;;;;;4986975;28;20962;-70
2022/06/17 11:55:39;;;;;;;2.10;1.90;;;34.10;42.50;;;;;;4987223;28;20435;-70
2022/06/17 11:58:05;;;;;;;2.30;1.83;;;35.20;40.90;;;;;;4987178;28;20411;-70
2022/06/17 12:00:55;;;;;;;2.40;1.80;;;35.30;40.10;;;;;;4987336;28;20473;-70
2022/06/17 12:03:39;;;;;;;2.20;1.20;;;35.60;38.50;;;;;;4987492;28;20208;-71
2022/06/17 12:06:06;;;;;;;2.00;1.30;;;35.20;38.00;;;;;;4986718;28;20542;-70
2022/06/17 12:08:40;;;;;;;1.87;1.70;;;35.70;35.90;;;;;;4987166;28;20428;-69
2022/06/17 12:11:12;;;;;;;2.70;1.80;;;36.70;35.60;;;;;;4986318;28;20455;-70
2022/06/17 12:13:45;;;;;;;2.00;1.83;;;37.10;36.10;;;;;;4987131;28;20490;-71
2022/06/17 12:16:19;;;;;;;1.90;1.50;;;37.30;34.60;;;;;;4986652;28;20488;-71
2022/06/17 12:18:47;;;;;;;1.93;1.50;;;37.00;34.30;;;;;;4987212;28;20416;-70
2022/06/17 12:21:13;;;;;;;1.90;1.53;;;37.70;33.40;;;;;;4986534;28;20890;-70
2022/06/17 12:23:40;;;;;;;3.77;1.50;;;36.20;34.00;;;;;;4987067;28;20424;-70
2022/06/17 12:26:13;;;;;;;2.40;1.40;;;35.90;33.70;;;;;;4986655;28;20196;-70
2022/06/17 12:28:46;;;;;;;1.93;1.20;;;34.60;35.60;;;;;;4987050;28;20419;-72
2022/06/17 12:31:34;;;;;;;1.83;1.20;;;35.80;33.80;;;;;;4986642;28;20884;-70
2022/06/17 12:34:11;;;;;;;2.20;1.20;;;35.90;34.80;;;;;;4986583;28;20514;-72
2022/06/17 12:36:49;;;;;;;1.50;1.40;;;37.80;34.60;;;;;;4986534;28;20466;-71
2022/06/17 12:39:36;;;;;;;3.23;1.73;;;37.50;32.50;;;;;;4986688;28;20422;-72
2022/06/17 12:42:32;;;;;;;1.40;1.20;;;37.00;33.40;;;;;;4985381;28;20428;-70
2022/06/17 12:45:17;;;;;;;1.67;1.57;;;38.20;32.90;;;;;;4948364;28;20471;-70
2022/06/17 12:48:08;;;;;;;1.50;1.33;;;37.60;32.60;;;;;;4986522;28;20423;-72
2022/06/17 12:53:53;;;;;;;1.80;1.70;;;37.10;33.10;;;;;;4986596;28;20479;-71
2022/06/17 12:56:53;;;;;;;1.63;1.53;;;37.10;33.80;;;;;;4986019;28;20464;-71
2022/06/17 12:59:31;;;;;;;2.20;1.20;;;37.60;32.10;;;;;;4985983;28;20408;-70
2022/06/17 13:02:19;;;;;;;2.90;1.20;;;36.70;33.70;;;;;;4986353;28;20851;-70
2022/06/17 13:04:55;;;;;;;1.50;1.30;;;35.80;33.30;;;;;;4985974;28;20561;-71
2022/06/17 13:07:38;;;;;;;1.23;1.13;;;35.20;33.20;;;;;;4986020;28;20427;-70
2022/06/17 13:13:02;;;;;;;1.40;1.30;;;37.30;31.30;;;;;;4985933;28;20470;-71
2022/06/17 13:15:34;;;;;;;1.37;1.27;;;37.60;31.40;;;;;;4986026;28;21389;-71
2022/06/17 13:18:11;;;;;;;1.20;1.10;;;35.40;32.10;;;;;;4985874;28;20453;-72
2022/06/17 13:21:00;;;;;;;2.20;0.90;;;34.70;33.50;;;;;;4985719;28;20668;-73
2022/06/17 13:23:36;;;;;;;1.63;1.20;;;37.10;33.80;;;;;;4986044;28;20419;-72
2022/06/17 13:26:04;;;;;;;1.93;1.00;;;37.00;30.90;;;;;;4985423;28;20442;-73
2022/06/17 13:28:56;;;;;;;3.60;1.17;;;36.50;31.40;;;;;;4985942;28;20411;-72
2022/06/17 13:31:30;;;;;;;1.10;1.00;;;37.90;30.10;;;;;;4985508;28;20414;-70
2022/06/17 13:34:01;;;;;;;1.10;1.00;;;38.20;30.30;;;;;;4985701;28;20851;-72
2022/06/17 13:36:35;;;;;;;1.50;1.03;;;39.90;29.90;;;;;;4985828;28;20474;-71
2022/06/17 13:39:09;;;;;;;5.23;1.63;;;40.10;28.80;;;;;;4984935;28;20518;-70